createdAt,value
2024-01-31T00:00:25.224Z,-5.16
2024-01-31T00:01:25.281Z,-5.16
2024-01-31T00:02:25.207Z,-5.16
2024-01-31T00:03:25.250Z,-5.16
2024-01-31T00:04:25.247Z,-5.15
2024-01-31T00:05:25.393Z,-5.15
2024-01-31T00:06:25.238Z,-5.15
2024-01-31T00:07:25.179Z,-5.15
2024-01-31T00:08:25.343Z,-5.16
2024-01-31T00:09:25.135Z,-5.16
2024-01-31T00:10:25.115Z,-5.16
2024-01-31T00:11:25.119Z,-5.17
2024-01-31T00:12:25.104Z,-5.18
2024-01-31T00:13:25.162Z,-5.19
2024-01-31T00:14:25.154Z,-5.20
2024-01-31T00:15:25.089Z,-5.21
2024-01-31T00:16:25.145Z,-5.22
2024-01-31T00:17:25.118Z,-5.22
2024-01-31T00:18:25.153Z,-5.21
2024-01-31T00:19:25.231Z,-5.20
2024-01-31T00:20:25.009Z,-5.20
2024-01-31T00:21:27.946Z,-5.20
2024-01-31T00:22:25.017Z,-5.20
2024-01-31T00:23:25.054Z,-5.21
2024-01-31T00:24:24.988Z,-5.21
2024-01-31T00:25:24.969Z,-5.20
2024-01-31T00:26:24.968Z,-5.21
2024-01-31T00:27:24.912Z,-5.21
2024-01-31T00:28:25.033Z,-5.21
2024-01-31T00:29:24.986Z,-5.21
2024-01-31T00:30:24.936Z,-5.21
2024-01-31T00:31:24.954Z,-5.21
2024-01-31T00:32:24.908Z,-5.21
2024-01-31T00:33:25.267Z,-5.20
2024-01-31T00:34:25.088Z,-5.20
2024-01-31T00:35:24.879Z,-5.19
2024-01-31T00:36:24.903Z,-5.19
2024-01-31T00:37:24.913Z,-5.18
2024-01-31T00:38:24.878Z,-5.18
2024-01-31T00:39:24.885Z,-5.18
2024-01-31T00:40:24.884Z,-5.18
2024-01-31T00:41:24.841Z,-5.18
2024-01-31T00:42:24.835Z,-5.18
2024-01-31T00:43:24.858Z,-5.17
2024-01-31T00:44:24.801Z,-5.16
2024-01-31T00:45:24.831Z,-5.17
2024-01-31T00:46:24.848Z,-5.17
2024-01-31T00:47:24.958Z,-5.17
2024-01-31T00:48:24.820Z,-5.17
2024-01-31T00:49:26.252Z,-5.18
2024-01-31T00:50:24.764Z,-5.17
2024-01-31T00:51:24.723Z,-5.16
2024-01-31T00:52:24.765Z,-5.15
2024-01-31T00:53:24.724Z,-5.13
2024-01-31T00:54:24.671Z,-5.11
2024-01-31T00:55:24.725Z,-5.09
2024-01-31T00:56:24.693Z,-5.06
2024-01-31T00:57:24.684Z,-5.05
2024-01-31T00:58:24.692Z,-5.04
2024-01-31T00:59:24.670Z,-5.04
2024-01-31T01:00:24.629Z,-5.04
2024-01-31T01:01:24.748Z,-5.05
2024-01-31T01:02:24.618Z,-5.05
2024-01-31T01:03:24.637Z,-5.05
2024-01-31T01:04:24.712Z,-5.05
2024-01-31T01:05:24.627Z,-5.05
2024-01-31T01:06:24.609Z,-5.05
2024-01-31T01:07:24.706Z,-5.04
2024-01-31T01:08:24.542Z,-5.05
2024-01-31T01:09:24.558Z,-5.05
2024-01-31T01:10:24.560Z,-5.05
2024-01-31T01:11:24.553Z,-5.05
2024-01-31T01:12:24.493Z,-5.06
2024-01-31T01:13:24.670Z,-5.07
2024-01-31T01:14:24.517Z,-5.07
2024-01-31T01:15:24.502Z,-5.06
2024-01-31T01:16:24.711Z,-5.04
2024-01-31T01:17:24.485Z,-5.01
2024-01-31T01:18:24.456Z,-4.98
2024-01-31T01:19:24.570Z,-4.93
2024-01-31T01:20:24.503Z,-4.88
2024-01-31T01:21:24.445Z,-4.84
2024-01-31T01:22:24.445Z,-4.82
2024-01-31T01:23:24.420Z,-4.79
2024-01-31T01:24:24.454Z,-4.78
2024-01-31T01:25:24.472Z,-4.76
2024-01-31T01:26:24.377Z,-4.74
2024-01-31T01:27:24.363Z,-4.72
2024-01-31T01:28:24.451Z,-4.69
2024-01-31T01:29:24.407Z,-4.65
2024-01-31T01:30:24.334Z,-4.61
2024-01-31T01:31:24.427Z,-4.57
2024-01-31T01:32:24.334Z,-4.53
2024-01-31T01:33:24.483Z,-4.48
2024-01-31T01:34:24.441Z,-4.42
2024-01-31T01:35:24.322Z,-4.36
2024-01-31T01:36:24.271Z,-4.32
2024-01-31T01:37:24.287Z,-4.28
2024-01-31T01:38:24.251Z,-4.26
2024-01-31T01:39:24.284Z,-4.24
2024-01-31T01:40:24.361Z,-4.22
2024-01-31T01:41:24.221Z,-4.19
2024-01-31T01:42:24.231Z,-4.15
2024-01-31T01:43:24.301Z,-4.11
2024-01-31T01:44:24.205Z,-4.06
2024-01-31T01:45:24.258Z,-4.01
2024-01-31T01:46:24.251Z,-3.97
2024-01-31T01:47:24.197Z,-3.93
2024-01-31T01:48:24.212Z,-3.90
2024-01-31T01:49:24.168Z,-3.88
2024-01-31T01:50:24.157Z,-3.88
2024-01-31T01:51:24.167Z,-3.88
2024-01-31T01:52:24.126Z,-3.90
2024-01-31T01:53:24.148Z,-3.93
2024-01-31T01:54:24.096Z,-3.95
2024-01-31T01:55:24.182Z,-3.97
2024-01-31T01:56:24.090Z,-3.98
2024-01-31T01:57:24.079Z,-3.98
2024-01-31T01:58:24.135Z,-3.98
2024-01-31T01:59:24.057Z,-3.98
2024-01-31T02:00:24.108Z,-3.98
2024-01-31T02:01:24.116Z,-3.98
2024-01-31T02:02:24.021Z,-3.98
2024-01-31T02:03:24.046Z,-3.98
2024-01-31T02:04:24.045Z,-3.98
2024-01-31T02:05:24.153Z,-3.98
2024-01-31T02:06:24.287Z,-3.99
2024-01-31T02:07:24.070Z,-3.99
2024-01-31T02:08:23.985Z,-4.00
2024-01-31T02:09:23.975Z,-4.00
2024-01-31T02:10:24.022Z,-4.00
2024-01-31T02:11:23.958Z,-4.00
2024-01-31T02:12:23.950Z,-4.00
2024-01-31T02:13:24.003Z,-3.99
2024-01-31T02:14:23.958Z,-3.99
2024-01-31T02:15:24.011Z,-3.97
2024-01-31T02:16:23.964Z,-3.95
2024-01-31T02:17:23.943Z,-3.92
2024-01-31T02:18:23.960Z,-3.88
2024-01-31T02:19:23.922Z,-3.85
2024-01-31T02:20:23.872Z,-3.82
2024-01-31T02:21:23.859Z,-3.79
2024-01-31T02:22:23.890Z,-3.78
2024-01-31T02:23:23.943Z,-3.77
2024-01-31T02:24:23.804Z,-3.78
2024-01-31T02:25:23.808Z,-3.79
2024-01-31T02:26:23.839Z,-3.81
2024-01-31T02:27:23.818Z,-3.84
2024-01-31T02:28:23.815Z,-3.86
2024-01-31T02:29:23.742Z,-3.88
2024-01-31T02:30:23.771Z,-3.88
2024-01-31T02:31:23.820Z,-3.89
2024-01-31T02:32:23.792Z,-3.88
2024-01-31T02:33:23.813Z,-3.88
2024-01-31T02:34:23.816Z,-3.88
2024-01-31T02:35:23.743Z,-3.87
2024-01-31T02:36:23.722Z,-3.86
2024-01-31T02:37:23.730Z,-3.85
2024-01-31T02:38:23.768Z,-3.84
2024-01-31T02:39:23.680Z,-3.84
2024-01-31T02:40:23.742Z,-3.84
2024-01-31T02:41:23.670Z,-3.84
2024-01-31T02:42:23.642Z,-3.84
2024-01-31T02:43:23.679Z,-3.84
2024-01-31T02:44:23.597Z,-3.84
2024-01-31T02:45:23.609Z,-3.86
2024-01-31T02:46:23.629Z,-3.87
2024-01-31T02:47:23.615Z,-3.87
2024-01-31T02:48:23.707Z,-3.85
2024-01-31T02:49:23.853Z,-3.82
2024-01-31T02:50:23.587Z,-3.78
2024-01-31T02:51:23.553Z,-3.70
2024-01-31T02:52:23.597Z,-3.58
2024-01-31T02:53:23.788Z,-3.45
2024-01-31T02:54:23.554Z,-3.33
2024-01-31T02:55:23.521Z,-3.22
2024-01-31T02:56:23.556Z,-3.14
2024-01-31T02:57:23.531Z,-3.09
2024-01-31T02:58:23.788Z,-3.08
2024-01-31T02:59:23.463Z,-3.15
2024-01-31T03:00:23.478Z,-3.28
2024-01-31T03:01:23.509Z,-3.42
2024-01-31T03:02:23.480Z,-3.55
2024-01-31T03:03:23.505Z,-3.64
2024-01-31T03:04:23.527Z,-3.70
2024-01-31T03:05:23.482Z,-3.74
2024-01-31T03:06:23.473Z,-3.75
2024-01-31T03:07:23.439Z,-3.69
2024-01-31T03:08:23.444Z,-3.52
2024-01-31T03:09:23.371Z,-3.30
2024-01-31T03:10:23.408Z,-3.07
2024-01-31T03:11:23.346Z,-2.85
2024-01-31T03:12:23.386Z,-2.66
2024-01-31T03:13:23.425Z,-2.50
2024-01-31T03:14:23.386Z,-2.37
2024-01-31T03:15:23.306Z,-2.26
2024-01-31T03:16:23.398Z,-2.14
2024-01-31T03:17:23.296Z,-2.06
2024-01-31T03:18:23.386Z,-2.01
2024-01-31T03:19:23.376Z,-2.04
2024-01-31T03:20:23.314Z,-2.15
2024-01-31T03:21:23.273Z,-2.34
2024-01-31T03:22:23.357Z,-2.54
2024-01-31T03:23:23.256Z,-2.73
2024-01-31T03:24:23.373Z,-2.94
2024-01-31T03:25:23.330Z,-3.13
2024-01-31T03:26:23.212Z,-3.27
2024-01-31T03:27:23.166Z,-3.38
2024-01-31T03:28:23.268Z,-3.46
2024-01-31T03:29:23.203Z,-3.52
2024-01-31T03:30:23.194Z,-3.56
2024-01-31T03:31:23.181Z,-3.58
2024-01-31T03:32:23.187Z,-3.59
2024-01-31T03:33:23.196Z,-3.59
2024-01-31T03:34:23.274Z,-3.54
2024-01-31T03:35:23.099Z,-3.43
2024-01-31T03:36:23.168Z,-3.24
2024-01-31T03:37:23.160Z,-3.03
2024-01-31T03:38:23.085Z,-2.90
2024-01-31T03:39:23.086Z,-2.85
2024-01-31T03:40:23.326Z,-2.84
2024-01-31T03:41:23.246Z,-2.86
2024-01-31T03:42:23.262Z,-2.83
2024-01-31T03:43:23.039Z,-2.69
2024-01-31T03:44:23.037Z,-2.49
2024-01-31T03:45:23.033Z,-2.32
2024-01-31T03:46:23.210Z,-2.19
2024-01-31T03:47:23.195Z,-2.08
2024-01-31T03:48:23.238Z,-2.00
2024-01-31T03:49:23.088Z,-1.90
2024-01-31T03:50:22.996Z,-1.81
2024-01-31T03:51:22.965Z,-1.73
2024-01-31T03:52:23.053Z,-1.67
2024-01-31T03:53:22.934Z,-1.61
2024-01-31T03:54:22.951Z,-1.54
2024-01-31T03:55:22.990Z,-1.47
2024-01-31T03:56:22.987Z,-1.37
2024-01-31T03:57:22.929Z,-1.24
2024-01-31T03:58:22.934Z,-1.13
2024-01-31T03:59:22.870Z,-1.05
2024-01-31T04:00:22.889Z,-0.96
2024-01-31T04:01:22.912Z,-0.87
2024-01-31T04:02:22.933Z,-0.77
2024-01-31T04:03:22.827Z,-0.67
2024-01-31T04:04:22.942Z,-0.58
2024-01-31T04:05:22.967Z,-0.51
2024-01-31T04:06:22.861Z,-0.43
2024-01-31T04:07:22.818Z,-0.32
2024-01-31T04:08:22.813Z,-0.20
2024-01-31T04:09:22.773Z,-0.07
2024-01-31T04:10:22.851Z,0.03
2024-01-31T04:11:22.800Z,0.09
2024-01-31T04:12:22.811Z,0.12
2024-01-31T04:13:22.821Z,0.14
2024-01-31T04:14:22.732Z,0.16
2024-01-31T04:15:22.720Z,0.19
2024-01-31T04:16:22.784Z,0.23
2024-01-31T04:17:22.761Z,0.27
2024-01-31T04:18:22.808Z,0.29
2024-01-31T04:19:22.742Z,0.27
2024-01-31T04:20:22.731Z,0.18
2024-01-31T04:21:22.656Z,0.01
2024-01-31T04:22:22.735Z,-0.25
2024-01-31T04:23:22.861Z,-0.64
2024-01-31T04:24:22.814Z,-1.10
2024-01-31T04:25:22.625Z,-1.54
2024-01-31T04:26:22.626Z,-1.90
2024-01-31T04:27:23.246Z,-2.18
2024-01-31T04:28:22.820Z,-2.41
2024-01-31T04:29:22.785Z,-2.62
2024-01-31T04:30:22.606Z,-2.81
2024-01-31T04:31:22.647Z,-2.98
2024-01-31T04:32:22.574Z,-3.12
2024-01-31T04:33:22.657Z,-3.23
2024-01-31T04:34:22.888Z,-3.30
2024-01-31T04:35:22.539Z,-3.35
2024-01-31T04:36:22.505Z,-3.38
2024-01-31T04:37:22.542Z,-3.40
2024-01-31T04:38:22.540Z,-3.41
2024-01-31T04:39:22.490Z,-3.42
2024-01-31T04:40:22.510Z,-3.44
2024-01-31T04:41:22.466Z,-3.46
2024-01-31T04:42:22.461Z,-3.48
2024-01-31T04:43:22.813Z,-3.49
2024-01-31T04:44:22.451Z,-3.51
2024-01-31T04:45:22.419Z,-3.53
2024-01-31T04:46:22.440Z,-3.55
2024-01-31T04:47:22.399Z,-3.55
2024-01-31T04:48:22.539Z,-3.55
2024-01-31T04:49:22.508Z,-3.54
2024-01-31T04:50:22.505Z,-3.53
2024-01-31T04:51:22.358Z,-3.52
2024-01-31T04:52:22.381Z,-3.50
2024-01-31T04:53:22.404Z,-3.49
2024-01-31T04:54:22.365Z,-3.47
2024-01-31T04:55:22.357Z,-3.45
2024-01-31T04:56:22.347Z,-3.44
2024-01-31T04:57:22.297Z,-3.43
2024-01-31T04:58:22.413Z,-3.44
2024-01-31T04:59:22.340Z,-3.45
2024-01-31T05:00:22.475Z,-3.46
2024-01-31T05:01:22.377Z,-3.45
2024-01-31T05:02:22.323Z,-3.45
2024-01-31T05:03:22.344Z,-3.43
2024-01-31T05:04:22.380Z,-3.42
2024-01-31T05:05:22.299Z,-3.40
2024-01-31T05:06:22.240Z,-3.38
2024-01-31T05:07:22.250Z,-3.36
2024-01-31T05:08:22.190Z,-3.34
2024-01-31T05:09:22.776Z,-3.33
2024-01-31T05:10:22.401Z,-3.33
2024-01-31T05:11:22.163Z,-3.32
2024-01-31T05:12:22.369Z,-3.32
2024-01-31T05:13:22.674Z,-3.31
2024-01-31T05:14:22.309Z,-3.31
2024-01-31T05:15:22.169Z,-3.30
2024-01-31T05:16:22.192Z,-3.29
2024-01-31T05:17:22.104Z,-3.28
2024-01-31T05:18:22.220Z,-3.27
2024-01-31T05:19:22.265Z,-3.26
2024-01-31T05:20:22.164Z,-3.24
2024-01-31T05:21:22.087Z,-3.22
2024-01-31T05:22:22.190Z,-3.20
2024-01-31T05:23:22.113Z,-3.18
2024-01-31T05:24:22.032Z,-3.15
2024-01-31T05:25:22.121Z,-3.13
2024-01-31T05:26:22.005Z,-3.10
2024-01-31T05:27:22.019Z,-3.08
2024-01-31T05:28:22.056Z,-3.05
2024-01-31T05:29:21.992Z,-3.02
2024-01-31T05:30:21.987Z,-3.00
2024-01-31T05:31:21.986Z,-2.96
2024-01-31T05:32:21.981Z,-2.93
2024-01-31T05:33:22.117Z,-2.89
2024-01-31T05:34:22.093Z,-2.85
2024-01-31T05:35:21.920Z,-2.81
2024-01-31T05:36:21.920Z,-2.78
2024-01-31T05:37:21.902Z,-2.76
2024-01-31T05:38:21.922Z,-2.73
2024-01-31T05:39:21.890Z,-2.72
2024-01-31T05:40:21.973Z,-2.70
2024-01-31T05:41:21.890Z,-2.69
2024-01-31T05:42:21.900Z,-2.67
2024-01-31T05:43:21.916Z,-2.66
2024-01-31T05:44:21.856Z,-2.64
2024-01-31T05:45:21.826Z,-2.63
2024-01-31T05:46:21.862Z,-2.62
2024-01-31T05:47:21.823Z,-2.62
2024-01-31T05:48:21.816Z,-2.62
2024-01-31T05:49:21.923Z,-2.62
2024-01-31T05:50:21.801Z,-2.63
2024-01-31T05:51:21.743Z,-2.64
2024-01-31T05:52:21.773Z,-2.65
2024-01-31T05:53:21.819Z,-2.67
2024-01-31T05:54:21.710Z,-2.68
2024-01-31T05:55:21.800Z,-2.68
2024-01-31T05:56:21.736Z,-2.68
2024-01-31T05:57:21.682Z,-2.69
2024-01-31T05:58:21.733Z,-2.72
2024-01-31T05:59:21.708Z,-2.75
2024-01-31T06:00:21.666Z,-2.77
2024-01-31T06:01:21.714Z,-2.80
2024-01-31T06:02:21.689Z,-2.83
2024-01-31T06:03:21.654Z,-2.85
2024-01-31T06:04:21.739Z,-2.87
2024-01-31T06:05:21.780Z,-2.87
2024-01-31T06:06:21.759Z,-2.88
2024-01-31T06:07:21.692Z,-2.88
2024-01-31T06:08:21.615Z,-2.88
2024-01-31T06:09:21.633Z,-2.88
2024-01-31T06:10:21.611Z,-2.85
2024-01-31T06:11:21.576Z,-2.81
2024-01-31T06:12:21.556Z,-2.77
2024-01-31T06:13:21.605Z,-2.72
2024-01-31T06:14:21.566Z,-2.67
2024-01-31T06:15:21.533Z,-2.63
2024-01-31T06:16:21.540Z,-2.57
2024-01-31T06:17:21.538Z,-2.52
2024-01-31T06:18:21.544Z,-2.46
2024-01-31T06:19:21.571Z,-2.41
2024-01-31T06:20:21.581Z,-2.37
2024-01-31T06:21:21.453Z,-2.33
2024-01-31T06:22:21.525Z,-2.30
2024-01-31T06:23:23.467Z,-2.26
2024-01-31T06:24:21.491Z,-2.22
2024-01-31T06:25:21.437Z,-2.19
2024-01-31T06:26:21.371Z,-2.16
2024-01-31T06:27:21.406Z,-2.13
2024-01-31T06:28:21.422Z,-2.10
2024-01-31T06:29:21.386Z,-2.08
2024-01-31T06:30:21.444Z,-2.06
2024-01-31T06:31:21.373Z,-2.04
2024-01-31T06:32:21.411Z,-2.03
2024-01-31T06:33:21.571Z,-2.01
2024-01-31T06:34:21.364Z,-2.00
2024-01-31T06:35:21.774Z,-1.99
2024-01-31T06:36:21.328Z,-1.99
2024-01-31T06:37:21.361Z,-1.99
2024-01-31T06:38:21.300Z,-1.99
2024-01-31T06:39:21.294Z,-2.01
2024-01-31T06:40:21.380Z,-2.02
2024-01-31T06:41:21.295Z,-2.04
2024-01-31T06:42:21.246Z,-2.07
2024-01-31T06:43:21.295Z,-2.11
2024-01-31T06:44:21.220Z,-2.16
2024-01-31T06:45:21.212Z,-2.22
2024-01-31T06:46:21.245Z,-2.28
2024-01-31T06:47:21.231Z,-2.36
2024-01-31T06:48:21.274Z,-2.44
2024-01-31T06:49:21.316Z,-2.50
2024-01-31T06:50:21.331Z,-2.54
2024-01-31T06:51:21.167Z,-2.56
2024-01-31T06:52:21.259Z,-2.49
2024-01-31T06:53:21.116Z,-2.33
2024-01-31T06:54:21.108Z,-2.15
2024-01-31T06:55:21.116Z,-2.00
2024-01-31T06:56:21.132Z,-1.83
2024-01-31T06:57:21.141Z,-1.67
2024-01-31T06:58:21.158Z,-1.56
2024-01-31T06:59:21.061Z,-1.51
2024-01-31T07:00:21.139Z,-1.49
2024-01-31T07:01:21.083Z,-1.48
2024-01-31T07:02:21.056Z,-1.48
2024-01-31T07:03:21.009Z,-1.46
2024-01-31T07:04:21.114Z,-1.44
2024-01-31T07:05:21.085Z,-1.40
2024-01-31T07:06:21.091Z,-1.32
2024-01-31T07:07:21.170Z,-1.22
2024-01-31T07:08:20.988Z,-1.11
2024-01-31T07:09:20.996Z,-1.02
2024-01-31T07:10:21.002Z,-0.97
2024-01-31T07:11:20.978Z,-0.95
2024-01-31T07:12:21.041Z,-0.98
2024-01-31T07:13:21.023Z,-1.05
2024-01-31T07:14:20.945Z,-1.17
2024-01-31T07:15:20.939Z,-1.26
2024-01-31T07:16:20.953Z,-1.33
2024-01-31T07:17:20.949Z,-1.39
2024-01-31T07:18:21.047Z,-1.42
2024-01-31T07:19:20.969Z,-1.42
2024-01-31T07:20:20.886Z,-1.41
2024-01-31T07:21:20.929Z,-1.39
2024-01-31T07:22:20.916Z,-1.35
2024-01-31T07:23:20.890Z,-1.29
2024-01-31T07:24:28.266Z,-1.14
2024-01-31T07:25:20.916Z,-0.90
2024-01-31T07:26:20.820Z,-0.59
2024-01-31T07:27:20.865Z,-0.24
2024-01-31T07:28:20.931Z,0.13
2024-01-31T07:29:20.767Z,0.48
2024-01-31T07:30:20.779Z,0.77
2024-01-31T07:31:20.946Z,1.02
2024-01-31T07:32:20.765Z,1.23
2024-01-31T07:33:20.905Z,1.36
2024-01-31T07:34:20.845Z,1.45
2024-01-31T07:35:20.718Z,1.57
2024-01-31T07:36:20.681Z,1.77
2024-01-31T07:37:20.746Z,2.02
2024-01-31T07:38:22.384Z,2.30
2024-01-31T07:39:20.722Z,2.57
2024-01-31T07:40:20.673Z,2.82
2024-01-31T07:41:20.640Z,3.02
2024-01-31T07:42:20.615Z,3.06
2024-01-31T07:43:21.083Z,2.98
2024-01-31T07:44:20.632Z,2.82
2024-01-31T07:45:20.597Z,2.63
2024-01-31T07:46:20.621Z,2.40
2024-01-31T07:47:20.580Z,2.14
2024-01-31T07:48:20.566Z,1.87
2024-01-31T07:49:20.860Z,1.58
2024-01-31T07:50:20.649Z,1.30
2024-01-31T07:51:20.537Z,1.05
2024-01-31T07:52:20.574Z,0.85
2024-01-31T07:53:20.515Z,0.71
2024-01-31T07:54:20.511Z,0.62
2024-01-31T07:55:20.647Z,0.57
2024-01-31T07:56:20.521Z,0.56
2024-01-31T07:57:20.472Z,0.61
2024-01-31T07:58:20.520Z,0.66
2024-01-31T07:59:20.471Z,0.71
2024-01-31T08:00:20.447Z,0.76
2024-01-31T08:01:20.581Z,0.80
2024-01-31T08:02:20.445Z,0.83
2024-01-31T08:03:20.492Z,0.85
2024-01-31T08:04:20.507Z,0.89
2024-01-31T08:05:20.388Z,0.94
2024-01-31T08:06:20.487Z,0.99
2024-01-31T08:07:20.509Z,1.03
2024-01-31T08:08:20.396Z,1.03
2024-01-31T08:09:22.955Z,0.99
2024-01-31T08:10:20.446Z,0.94
2024-01-31T08:11:20.371Z,0.90
2024-01-31T08:12:20.324Z,0.86
2024-01-31T08:13:20.398Z,0.83
2024-01-31T08:14:20.356Z,0.83
2024-01-31T08:15:20.302Z,0.85
2024-01-31T08:16:20.311Z,0.87
2024-01-31T08:17:20.296Z,0.85
2024-01-31T08:18:20.350Z,0.88
2024-01-31T08:19:20.467Z,0.96
2024-01-31T08:20:20.438Z,1.08
2024-01-31T08:21:20.251Z,1.17
2024-01-31T08:22:20.285Z,1.22
2024-01-31T08:23:20.232Z,1.28
2024-01-31T08:24:20.311Z,1.33
2024-01-31T08:25:20.282Z,1.40
2024-01-31T08:26:20.224Z,1.49
2024-01-31T08:27:20.285Z,1.58
2024-01-31T08:28:20.234Z,1.66
2024-01-31T08:29:26.773Z,1.82
2024-01-31T08:30:20.179Z,2.01
2024-01-31T08:31:20.193Z,2.13
2024-01-31T08:32:20.131Z,2.19
2024-01-31T08:33:20.214Z,2.25
2024-01-31T08:34:20.302Z,2.31
2024-01-31T08:35:20.236Z,2.39
2024-01-31T08:36:20.111Z,2.47
2024-01-31T08:37:20.125Z,2.53
2024-01-31T08:38:20.066Z,2.58
2024-01-31T08:39:20.088Z,2.65
2024-01-31T08:40:21.372Z,2.77
2024-01-31T08:41:20.076Z,2.91
2024-01-31T08:42:20.031Z,3.07
2024-01-31T08:43:20.056Z,3.27
2024-01-31T08:44:20.029Z,3.51
2024-01-31T08:45:19.981Z,3.77
2024-01-31T08:46:20.062Z,4.00
2024-01-31T08:47:20.349Z,4.17
2024-01-31T08:48:20.054Z,4.33
2024-01-31T08:49:20.024Z,4.50
2024-01-31T08:50:20.131Z,4.69
2024-01-31T08:51:19.983Z,4.80
2024-01-31T08:52:19.953Z,4.69
2024-01-31T08:53:19.934Z,4.42
2024-01-31T08:54:19.889Z,4.16
2024-01-31T08:55:20.102Z,3.99
2024-01-31T08:56:20.001Z,3.92
2024-01-31T08:57:20.894Z,3.96
2024-01-31T08:58:19.907Z,4.08
2024-01-31T08:59:19.872Z,4.24
2024-01-31T09:00:19.849Z,4.41
2024-01-31T09:01:19.988Z,4.58
2024-01-31T09:02:19.961Z,4.71
2024-01-31T09:03:19.838Z,4.82
2024-01-31T09:04:23.481Z,4.91
2024-01-31T09:05:20.007Z,5.03
2024-01-31T09:06:19.870Z,5.15
2024-01-31T09:07:19.798Z,5.23
2024-01-31T09:08:19.757Z,5.22
2024-01-31T09:09:19.727Z,5.15
2024-01-31T09:10:19.747Z,5.12
2024-01-31T09:11:19.766Z,5.16
2024-01-31T09:12:19.758Z,5.24
2024-01-31T09:13:19.775Z,5.32
2024-01-31T09:14:19.704Z,5.40
2024-01-31T09:15:19.741Z,5.46
2024-01-31T09:16:19.742Z,5.48
2024-01-31T09:17:19.691Z,5.46
2024-01-31T09:18:19.794Z,5.42
2024-01-31T09:19:19.892Z,5.36
2024-01-31T09:20:19.770Z,5.24
2024-01-31T09:21:19.648Z,5.11
2024-01-31T09:22:19.687Z,5.01
2024-01-31T09:23:19.631Z,4.93
2024-01-31T09:24:19.600Z,4.87
2024-01-31T09:25:19.627Z,4.83
2024-01-31T09:26:19.599Z,4.84
2024-01-31T09:27:19.600Z,4.83
2024-01-31T09:28:19.628Z,4.80
2024-01-31T09:29:19.546Z,4.75
2024-01-31T09:30:19.574Z,4.73
2024-01-31T09:31:19.608Z,4.72
2024-01-31T09:32:19.514Z,4.72
2024-01-31T09:33:19.554Z,4.72
2024-01-31T09:34:19.633Z,4.74
2024-01-31T09:35:19.559Z,4.77
2024-01-31T09:36:19.469Z,4.80
2024-01-31T09:37:19.536Z,4.84
2024-01-31T09:38:19.437Z,4.88
2024-01-31T09:39:19.441Z,4.94
2024-01-31T09:40:19.488Z,5.06
2024-01-31T09:41:19.448Z,5.23
2024-01-31T09:42:19.514Z,5.44
2024-01-31T09:43:19.450Z,5.66
2024-01-31T09:44:19.393Z,5.86
2024-01-31T09:45:19.356Z,6.03
2024-01-31T09:46:19.395Z,6.16
2024-01-31T09:47:19.400Z,6.27
2024-01-31T09:48:19.453Z,6.36
2024-01-31T09:49:19.445Z,6.49
2024-01-31T09:50:19.400Z,6.62
2024-01-31T09:51:19.316Z,6.69
2024-01-31T09:52:19.399Z,6.66
2024-01-31T09:53:19.316Z,6.58
2024-01-31T09:54:19.269Z,6.49
2024-01-31T09:55:19.301Z,6.41
2024-01-31T09:56:19.274Z,6.36
2024-01-31T09:57:19.321Z,6.34
2024-01-31T09:58:19.301Z,6.32
2024-01-31T09:59:19.232Z,6.31
2024-01-31T10:00:19.233Z,6.33
2024-01-31T10:01:25.350Z,6.37
2024-01-31T10:02:19.370Z,6.40
2024-01-31T10:03:19.328Z,6.43
2024-01-31T10:04:19.222Z,6.45
2024-01-31T10:05:19.225Z,6.47
2024-01-31T10:06:19.205Z,6.53
2024-01-31T10:07:19.202Z,6.58
2024-01-31T10:08:19.190Z,6.64
2024-01-31T10:09:19.150Z,6.69
2024-01-31T10:10:19.218Z,6.71
2024-01-31T10:11:19.120Z,6.72
2024-01-31T10:12:19.263Z,6.73
2024-01-31T10:13:19.175Z,6.75
2024-01-31T10:14:19.149Z,6.77
2024-01-31T10:15:19.071Z,6.79
2024-01-31T10:16:19.102Z,6.83
2024-01-31T10:17:19.051Z,6.90
2024-01-31T10:18:19.165Z,6.99
2024-01-31T10:19:19.150Z,7.06
2024-01-31T10:20:19.116Z,7.11
2024-01-31T10:21:19.003Z,7.14
2024-01-31T10:22:19.016Z,7.13
2024-01-31T10:23:19.021Z,7.12
2024-01-31T10:24:19.023Z,7.12
2024-01-31T10:25:19.085Z,7.14
2024-01-31T10:26:19.230Z,7.17
2024-01-31T10:27:18.954Z,7.19
2024-01-31T10:28:19.046Z,7.21
2024-01-31T10:29:19.011Z,7.23
2024-01-31T10:30:18.928Z,7.23
2024-01-31T10:31:18.991Z,7.24
2024-01-31T10:32:19.018Z,7.27
2024-01-31T10:33:19.117Z,7.37
2024-01-31T10:34:23.694Z,7.50
2024-01-31T10:35:28.432Z,7.62
2024-01-31T10:37:52.233Z,7.86
2024-01-31T10:38:19.102Z,8.00
2024-01-31T10:39:18.989Z,8.15
2024-01-31T10:40:18.973Z,8.30
2024-01-31T10:41:18.791Z,8.39
2024-01-31T10:42:18.776Z,8.43
2024-01-31T10:43:18.753Z,8.45
2024-01-31T10:44:18.863Z,8.48
2024-01-31T10:45:18.798Z,8.45
2024-01-31T10:46:18.717Z,8.37
2024-01-31T10:47:18.737Z,8.27
2024-01-31T10:48:18.830Z,8.19
2024-01-31T10:49:19.328Z,8.15
2024-01-31T10:50:18.828Z,8.23
2024-01-31T10:51:22.006Z,8.39
2024-01-31T10:52:18.633Z,8.55
2024-01-31T10:53:18.680Z,8.68
2024-01-31T10:54:18.919Z,8.74
2024-01-31T10:55:18.797Z,8.73
2024-01-31T10:56:18.864Z,8.74
2024-01-31T10:57:18.681Z,8.75
2024-01-31T10:58:18.629Z,8.67
2024-01-31T10:59:18.659Z,8.50
2024-01-31T11:00:18.620Z,8.36
2024-01-31T11:01:18.683Z,8.20
2024-01-31T11:02:18.625Z,7.99
2024-01-31T11:03:18.822Z,7.87
2024-01-31T11:04:18.526Z,7.84
2024-01-31T11:05:18.722Z,7.86
2024-01-31T11:06:18.684Z,7.89
2024-01-31T11:07:19.088Z,7.89
2024-01-31T11:08:18.524Z,7.84
2024-01-31T11:09:18.526Z,7.76
2024-01-31T11:10:18.468Z,7.68
2024-01-31T11:11:18.520Z,7.65
2024-01-31T11:12:18.506Z,7.60
2024-01-31T11:13:18.494Z,7.50
2024-01-31T11:14:18.448Z,7.42
2024-01-31T11:15:18.434Z,7.37
2024-01-31T11:16:18.457Z,7.32
2024-01-31T11:17:18.422Z,7.23
2024-01-31T11:18:18.541Z,7.14
2024-01-31T11:19:18.423Z,7.08
2024-01-31T11:20:18.396Z,7.06
2024-01-31T11:21:18.883Z,7.04
2024-01-31T11:22:18.384Z,7.03
2024-01-31T11:23:18.379Z,7.04
2024-01-31T11:24:18.480Z,7.15
2024-01-31T11:25:18.338Z,7.33
2024-01-31T11:26:18.346Z,7.43
2024-01-31T11:27:18.728Z,7.50
2024-01-31T11:28:18.314Z,7.61
2024-01-31T11:29:18.274Z,7.72
2024-01-31T11:30:18.335Z,7.88
2024-01-31T11:31:18.310Z,8.16
2024-01-31T11:32:18.225Z,8.46
2024-01-31T11:33:18.422Z,8.74
2024-01-31T11:34:18.415Z,9.07
2024-01-31T11:35:18.246Z,9.49
2024-01-31T11:36:18.243Z,9.96
2024-01-31T11:37:18.233Z,10.42
2024-01-31T11:38:18.231Z,10.89
2024-01-31T11:39:18.230Z,11.29
2024-01-31T11:40:18.178Z,11.53
2024-01-31T11:41:18.178Z,11.58
2024-01-31T11:42:18.154Z,11.53
2024-01-31T11:43:18.162Z,11.54
2024-01-31T11:44:18.168Z,11.64
2024-01-31T11:45:18.169Z,11.82
2024-01-31T11:46:18.085Z,12.01
2024-01-31T11:47:18.122Z,12.28
2024-01-31T11:48:18.340Z,12.51
2024-01-31T11:49:19.336Z,12.79
2024-01-31T11:50:18.139Z,13.23
2024-01-31T11:51:18.072Z,13.73
2024-01-31T11:52:18.072Z,14.08
2024-01-31T11:53:18.038Z,14.30
2024-01-31T11:54:18.047Z,14.50
2024-01-31T11:55:18.358Z,14.70
2024-01-31T11:56:18.022Z,14.80
2024-01-31T11:57:18.006Z,14.78
2024-01-31T11:58:18.030Z,14.64
2024-01-31T11:59:17.991Z,14.35
2024-01-31T12:00:18.083Z,13.83
2024-01-31T12:01:18.015Z,13.31
2024-01-31T12:02:17.977Z,12.93
2024-01-31T12:03:17.967Z,12.62
2024-01-31T12:04:17.998Z,12.38
2024-01-31T12:05:17.997Z,12.24
2024-01-31T12:06:18.082Z,12.16
2024-01-31T12:07:18.000Z,12.11
2024-01-31T12:08:17.908Z,12.09
2024-01-31T12:09:17.899Z,12.07
2024-01-31T12:10:17.896Z,12.02
2024-01-31T12:11:17.928Z,11.94
2024-01-31T12:12:17.899Z,11.84
2024-01-31T12:13:17.854Z,11.72
2024-01-31T12:14:17.831Z,11.59
2024-01-31T12:15:17.834Z,11.50
2024-01-31T12:16:17.860Z,11.42
2024-01-31T12:17:17.842Z,11.39
2024-01-31T12:18:17.875Z,11.36
2024-01-31T12:19:17.840Z,11.33
2024-01-31T12:20:17.813Z,11.28
2024-01-31T12:21:17.833Z,11.21
2024-01-31T12:22:17.774Z,11.08
2024-01-31T12:23:17.737Z,10.84
2024-01-31T12:24:17.776Z,10.52
2024-01-31T12:25:17.728Z,10.18
2024-01-31T12:26:17.770Z,9.82
2024-01-31T12:27:17.740Z,9.49
2024-01-31T12:28:17.715Z,9.20
2024-01-31T12:29:17.697Z,8.97
2024-01-31T12:30:17.859Z,8.76
2024-01-31T12:31:17.709Z,8.59
2024-01-31T12:32:17.665Z,8.45
2024-01-31T12:33:17.772Z,8.37
2024-01-31T12:34:17.687Z,8.34
2024-01-31T12:35:17.629Z,8.37
2024-01-31T12:36:17.741Z,8.42
2024-01-31T12:37:17.676Z,8.42
2024-01-31T12:38:17.601Z,8.35
2024-01-31T12:39:17.586Z,8.26
2024-01-31T12:40:17.590Z,8.15
2024-01-31T12:41:18.390Z,8.05
2024-01-31T12:42:17.620Z,7.92
2024-01-31T12:43:17.554Z,7.75
2024-01-31T12:44:17.511Z,7.59
2024-01-31T12:45:17.629Z,7.45
2024-01-31T12:46:17.557Z,7.33
2024-01-31T12:47:17.543Z,7.18
2024-01-31T12:48:17.573Z,7.03
2024-01-31T12:49:17.598Z,6.90
2024-01-31T12:50:17.684Z,6.81
2024-01-31T12:51:18.017Z,6.76
2024-01-31T12:52:17.465Z,6.71
2024-01-31T12:53:17.459Z,6.68
2024-01-31T12:54:17.510Z,6.65
2024-01-31T12:55:17.499Z,6.61
2024-01-31T12:56:17.428Z,6.57
2024-01-31T12:57:17.442Z,6.54
2024-01-31T12:58:17.419Z,6.48
2024-01-31T12:59:17.401Z,6.40
2024-01-31T13:00:17.414Z,6.33
2024-01-31T13:01:17.431Z,6.29
2024-01-31T13:02:17.428Z,6.25
2024-01-31T13:03:17.447Z,6.22